Asbury, WV

9:59 PM EST on December 10, 2019 (GMT -0500)
Crawley | | Change Station
Active Advisory: Special Statement

Elev 2323 ft 37.87 °N, 80.58 °W | Updated 5 seconds ago

Snow
Snow
28.4 °F
Feels Like 28 °F
N
3
Wind Variable Wind from NW
Gusts 6.0 mph

Today
High -- | Low -- °F
--% Chance of Precip.
Yesterday
High -- | Low -- °F
Precip. -- in
Pressure 30.18 in
Visibility 4.0 miles
Clouds Scattered Clouds 1300 ft
Mostly Cloudy 2200 ft
Overcast 3400 ft
Windchill 28 °F
Dew Point 26 °F
Humidity 92%
Rainfall 0.39 in
Snow Depth Not available.
7:26 AM 5:03 PM
Waxing Gibbous, 99% visible
METAR KLWB 110215Z AUTO 30004KT 4SM -SN SCT013 BKN022 OVC034 00/M02 A3018 RMK AO2 T00001016
Pressure 30.18 in
Visibility 4.0 miles
Clouds Scattered Clouds 1300 ft
Mostly Cloudy 2200 ft
Overcast 3400 ft
Windchill 28 °F
Dew Point 26 °F
Humidity 92%
Rainfall 0.39 in
Snow Depth Not available.
7:26 AM 5:03 PM
Waxing Gibbous, 99% visible
METAR KLWB 110215Z AUTO 30004KT 4SM -SN SCT013 BKN022 OVC034 00/M02 A3018 RMK AO2 T00001016

Get Your Daily Forecast Email!

Thanks for signing up!

Be on the lookout for a verification email in your inbox.

You'll start receiving severe weather alerts in your inbox..

×

10-Day Weather Forecast

Almanac

Astronomy

Dec. 10, 2019 Rise Set
Actual Time
Civil Twilight
Nautical Twilight
Astronomical Twilight
Moon
Length of Visible Light
Length of Day
Tomorrow will be .
, % of the Moon is Illuminated

Today's Extremes

State Highs State Lows

Community

WunderPhotos

Category 6

Welcome to Category 6. This is the collective home for Weather Underground's featured writeups by Dr. Jeff Masters (right), Bob Henson (left), Chris Burt, and other regular contributors.

Nearby

Air Quality

  Air Quality AQ Index Pollutant
Not available.

Snow Depth

Station Depth Elevation

Earthquake Activity

City Distance Mag. Time & Date
Minimum magnitude displayed is 2.5.

Coastal Water Temperatures

Place Temperature

Stations

Nearby Weather Stations

Station Location Temp. Windchill Dew Point Humidity Wind Precip. Elev Updated Type
                   

Watches & Warnings

Special Statement
Issued: 7:50 PM EST Dec. 10, 2019 – National Weather Service

... Accumulating snowfall on roads this evening...

Snow showers will produce up to an inch on the roads during the
next few hours. As temperatures fall below freezing, expect some
slick spots to develop. The snow showers will also reduce
visibilities at times, so be sure to slow down and allow extra
time to reach your destination while driving tonight.


Pw

750 PM EST Tue Dec 10 2019

... Accumulating snowfall on roads this evening...

Snow showers will produce up to an inch on the roads during the
next few hours. As temperatures fall below freezing, expect some
slick spots to develop. The snow showers will also reduce
visibilities at times, so be sure to slow down and allow extra
time to reach your destination while driving tonight.


Pw